createdAt,value
2024-01-20T00:04:55.848Z,21.98
2024-01-20T00:09:59.860Z,20.40
2024-01-20T00:15:04.260Z,22.20
2024-01-20T00:20:11.783Z,21.20
2024-01-20T00:25:15.636Z,18.83
2024-01-20T00:30:19.799Z,19.67
2024-01-20T00:35:25.296Z,19.30
2024-01-20T00:40:29.239Z,21.70
2024-01-20T00:45:32.834Z,19.60
2024-01-20T00:50:38.460Z,18.27
2024-01-20T00:55:42.424Z,19.27
2024-01-20T01:00:46.476Z,17.58
2024-01-20T01:05:51.798Z,19.50
2024-01-20T01:10:57.033Z,20.60
2024-01-20T01:16:00.886Z,19.97
2024-01-20T01:21:06.709Z,18.85
2024-01-20T01:26:10.363Z,17.90
2024-01-20T01:31:14.283Z,20.77
2024-01-20T01:36:20.021Z,19.70
2024-01-20T01:41:24.090Z,20.80
2024-01-20T01:46:28.629Z,16.27
2024-01-20T01:56:37.761Z,21.05
2024-01-20T02:01:41.671Z,19.50
2024-01-20T02:06:47.349Z,18.33
2024-01-20T02:11:52.027Z,21.47
2024-01-20T02:16:55.882Z,18.43
2024-01-20T02:22:01.393Z,18.60
2024-01-20T02:27:07.116Z,17.90
2024-01-20T02:32:10.702Z,17.37
2024-01-20T02:37:14.643Z,20.57
2024-01-20T02:42:19.935Z,17.45
2024-01-20T02:47:24.002Z,21.27
2024-01-20T02:52:27.662Z,19.73
2024-01-20T02:57:33.500Z,21.67
2024-01-20T03:02:37.209Z,17.30
2024-01-20T03:07:41.136Z,22.60
2024-01-20T03:12:46.187Z,21.52
2024-01-20T03:17:50.152Z,21.67
2024-01-20T03:22:53.794Z,19.63
2024-01-20T03:27:59.045Z,20.60
2024-01-20T03:33:03.028Z,18.20
2024-01-20T03:38:07.498Z,21.33
2024-01-20T03:43:12.603Z,22.10
2024-01-20T03:48:16.669Z,20.03
2024-01-20T03:53:20.507Z,25.45
2024-01-20T03:58:25.842Z,20.93
2024-01-20T04:03:29.697Z,23.87
2024-01-20T04:08:33.665Z,22.43
2024-01-20T04:13:38.874Z,24.10
2024-01-20T04:18:42.777Z,24.03
2024-01-20T04:23:46.709Z,21.42
2024-01-20T04:28:51.769Z,21.53
2024-01-20T04:33:55.690Z,21.23
2024-01-20T04:38:59.668Z,22.05
2024-01-20T04:44:04.938Z,20.65
2024-01-20T04:49:08.953Z,25.00
2024-01-20T04:54:13.005Z,22.67
2024-01-20T04:59:18.287Z,19.45
2024-01-20T05:04:22.056Z,22.33
2024-01-20T05:09:25.927Z,22.33
2024-01-20T05:14:31.323Z,20.90
2024-01-20T05:19:35.333Z,25.07
2024-01-20T05:24:39.282Z,19.25
2024-01-20T05:29:44.350Z,24.57
2024-01-20T05:34:48.326Z,23.33
2024-01-20T05:39:53.054Z,19.92
2024-01-20T05:44:58.457Z,25.67
2024-01-20T05:50:02.401Z,19.90
2024-01-20T05:55:08.956Z,23.03
2024-01-20T06:05:18.386Z,24.87
2024-01-20T06:10:22.352Z,24.93
2024-01-20T06:15:27.532Z,26.02
2024-01-20T06:20:31.628Z,30.00
2024-01-20T06:25:35.565Z,22.45
2024-01-20T06:30:40.671Z,21.63
2024-01-20T06:35:44.496Z,24.63
2024-01-20T06:40:48.402Z,26.17
2024-01-20T06:45:53.520Z,25.77
2024-01-20T06:50:57.402Z,22.50
2024-01-20T06:56:01.387Z,24.00
2024-01-20T07:01:07.132Z,28.63
2024-01-20T07:06:11.141Z,25.43
2024-01-20T07:11:15.109Z,26.70
2024-01-20T07:16:22.551Z,27.03
2024-01-20T07:21:26.502Z,24.23
2024-01-20T07:26:30.472Z,28.70
2024-01-20T07:31:35.574Z,28.63
2024-01-20T07:36:40.229Z,28.53
2024-01-20T07:46:49.310Z,22.57
2024-01-20T07:51:53.246Z,25.83
2024-01-20T07:56:57.265Z,22.13
2024-01-20T08:02:02.760Z,23.35
2024-01-20T08:07:06.886Z,26.30
2024-01-20T08:12:11.037Z,22.48
2024-01-20T08:17:16.472Z,23.88
2024-01-20T08:22:21.132Z,22.52
2024-01-20T08:27:25.177Z,21.33
2024-01-20T08:32:30.565Z,18.43
2024-01-20T08:37:34.537Z,19.42
2024-01-20T08:42:38.372Z,15.30
2024-01-20T08:47:43.725Z,21.48
2024-01-20T08:52:47.657Z,21.98
2024-01-20T08:57:51.604Z,18.93
2024-01-20T09:02:56.971Z,16.50
2024-01-20T09:08:01.012Z,17.85
2024-01-20T09:13:05.318Z,14.70
2024-01-20T09:18:10.869Z,15.65
2024-01-20T09:23:14.613Z,15.23
2024-01-20T09:28:18.696Z,14.60
2024-01-20T09:33:23.946Z,15.10
2024-01-20T09:38:30.095Z,15.35
2024-01-20T09:43:35.140Z,16.67
2024-01-20T09:48:41.973Z,15.60
2024-01-20T09:53:46.278Z,15.57
2024-01-20T09:58:52.301Z,20.45
2024-01-20T10:04:03.067Z,13.15
2024-01-20T10:09:08.327Z,16.00
2024-01-20T10:14:12.459Z,14.07
2024-01-20T10:19:17.816Z,13.23
2024-01-20T10:24:24.865Z,13.85
2024-01-20T10:29:28.857Z,14.60
2024-01-20T10:34:34.134Z,13.27
2024-01-20T10:39:43.038Z,17.25
2024-01-20T10:44:55.335Z,14.82
2024-01-20T10:50:06.524Z,13.32
2024-01-20T10:55:12.246Z,15.98
2024-01-20T11:00:17.268Z,15.63
2024-01-20T11:05:26.653Z,16.48
2024-01-20T11:10:30.891Z,17.67
2024-01-20T11:15:35.642Z,18.30
2024-01-20T11:20:40.944Z,19.77
2024-01-20T11:25:47.544Z,19.60
2024-01-20T11:30:51.512Z,16.20
2024-01-20T11:35:56.665Z,18.17
2024-01-20T11:41:01.374Z,15.73
2024-01-20T11:51:10.728Z,16.05
2024-01-20T11:56:14.548Z,17.25
2024-01-20T12:01:19.447Z,16.08
2024-01-20T12:06:25.417Z,18.55
2024-01-20T12:11:29.815Z,14.65
2024-01-20T12:16:33.838Z,15.10
2024-01-20T12:21:39.388Z,12.93
2024-01-20T12:26:44.110Z,15.70
2024-01-20T12:31:48.117Z,14.13
2024-01-20T12:36:53.470Z,14.43
2024-01-20T12:41:57.881Z,12.70
2024-01-20T12:47:01.772Z,14.15
2024-01-20T12:52:08.086Z,13.83
2024-01-20T12:57:12.241Z,13.27
2024-01-20T13:02:16.976Z,15.68
2024-01-20T13:07:23.973Z,17.13
2024-01-20T13:12:27.772Z,16.27
2024-01-20T13:17:31.726Z,18.65
2024-01-20T13:22:36.846Z,16.97
2024-01-20T13:27:41.081Z,17.67
2024-01-20T13:32:45.276Z,19.20
2024-01-20T13:37:50.684Z,18.90
2024-01-20T13:42:54.404Z,16.92
2024-01-20T13:47:58.513Z,21.87
2024-01-20T13:53:04.505Z,19.17
2024-01-20T13:58:08.450Z,19.92
2024-01-20T14:03:12.130Z,23.80
2024-01-20T14:08:18.151Z,20.23
2024-01-20T14:13:21.936Z,19.25
2024-01-20T14:18:25.997Z,19.98
2024-01-20T14:23:31.122Z,23.23
2024-01-20T14:28:35.145Z,22.27
2024-01-20T14:33:39.106Z,20.17
2024-01-20T14:38:44.563Z,19.33
2024-01-20T14:43:48.333Z,19.65
2024-01-20T14:48:52.287Z,15.37
2024-01-20T14:53:57.561Z,16.80
2024-01-20T14:59:03.664Z,17.85
2024-01-20T15:04:08.696Z,18.80
2024-01-20T15:09:14.528Z,20.83
2024-01-20T15:14:18.314Z,17.13
2024-01-20T15:19:22.272Z,17.15
2024-01-20T15:24:27.833Z,18.27
2024-01-20T15:29:33.747Z,17.40
2024-01-20T15:34:37.667Z,19.23
2024-01-20T15:39:42.960Z,19.37
2024-01-20T15:44:46.773Z,17.60
2024-01-20T15:49:51.089Z,18.37
2024-01-20T15:54:56.483Z,20.50
2024-01-20T16:00:00.587Z,20.77
2024-01-20T16:05:04.580Z,17.42
2024-01-20T16:10:11.129Z,19.65
2024-01-20T16:15:15.082Z,22.70
2024-01-20T16:20:19.589Z,22.53
2024-01-20T16:25:25.340Z,22.98
2024-01-20T16:30:29.374Z,23.15
2024-01-20T16:35:33.545Z,24.52
2024-01-20T16:40:38.929Z,23.27
2024-01-20T16:45:43.095Z,24.83
2024-01-20T16:50:47.311Z,24.80
2024-01-20T16:55:52.652Z,24.42
2024-01-20T17:00:56.692Z,26.15
2024-01-20T17:06:00.550Z,30.02
2024-01-20T17:11:06.690Z,25.55
2024-01-20T17:16:10.550Z,28.13
2024-01-20T17:21:18.224Z,28.47
2024-01-20T17:26:29.601Z,28.50
2024-01-20T17:31:35.063Z,26.10
2024-01-20T17:36:39.145Z,31.45
2024-01-20T17:41:46.221Z,30.85
2024-01-20T17:46:50.298Z,28.88
2024-01-20T17:51:54.426Z,21.83
2024-01-20T17:56:59.960Z,19.73
2024-01-20T18:02:03.967Z,16.17
2024-01-20T18:07:08.197Z,15.50
2024-01-20T18:12:13.746Z,18.95
2024-01-20T18:17:17.739Z,14.40
2024-01-20T18:22:21.386Z,13.50
2024-01-20T18:27:26.860Z,13.27
2024-01-20T18:32:30.652Z,11.05
2024-01-20T18:37:34.868Z,9.83
2024-01-20T18:42:40.630Z,10.77
2024-01-20T18:47:45.831Z,8.43
2024-01-20T18:52:49.467Z,9.37
2024-01-20T18:57:54.772Z,9.00
2024-01-20T19:02:58.493Z,6.77
2024-01-20T19:08:02.384Z,8.80
2024-01-20T19:13:07.997Z,8.73
2024-01-20T19:18:11.946Z,10.70
2024-01-20T19:23:18.060Z,10.00
2024-01-20T19:28:23.348Z,16.13
2024-01-20T19:33:27.370Z,8.80
2024-01-20T19:38:31.309Z,8.68
2024-01-20T19:43:41.525Z,9.90
2024-01-20T19:48:49.494Z,11.57
2024-01-20T19:53:53.618Z,11.00
2024-01-20T19:58:59.002Z,10.40
2024-01-20T20:04:02.887Z,13.17
2024-01-20T20:09:07.588Z,10.75
2024-01-20T20:19:17.034Z,12.37
2024-01-20T20:24:20.819Z,9.88
2024-01-20T20:29:26.537Z,8.67
2024-01-20T20:34:30.975Z,7.90
2024-01-20T20:39:34.868Z,14.45
2024-01-20T20:44:40.046Z,9.60
2024-01-20T20:49:44.094Z,8.57
2024-01-20T20:54:54.730Z,9.60
2024-01-20T21:05:04.192Z,11.13
2024-01-20T21:10:09.522Z,9.52
2024-01-20T21:15:20.664Z,11.47
2024-01-20T21:20:24.659Z,11.13
2024-01-20T21:25:30.887Z,12.25
2024-01-20T21:30:36.271Z,10.77
2024-01-20T21:35:40.066Z,13.27
2024-01-20T21:40:46.157Z,16.17
2024-01-20T21:45:51.315Z,16.83
2024-01-20T21:50:57.535Z,14.80
2024-01-20T21:56:02.066Z,13.23
2024-01-20T22:01:07.745Z,15.65
2024-01-20T22:06:11.592Z,13.50
2024-01-20T22:11:16.252Z,13.13
2024-01-20T22:16:21.480Z,15.32
2024-01-20T22:21:25.420Z,14.43
2024-01-20T22:26:29.333Z,11.98
2024-01-20T22:31:34.591Z,12.75
2024-01-20T22:36:38.840Z,12.13
2024-01-20T22:41:42.886Z,14.02
2024-01-20T22:46:50.394Z,14.60
2024-01-20T22:51:54.313Z,12.30
2024-01-20T22:56:58.361Z,15.43
2024-01-20T23:02:03.653Z,14.38
2024-01-20T23:07:07.605Z,13.13
2024-01-20T23:12:11.676Z,15.07
2024-01-20T23:17:19.611Z,14.65
2024-01-20T23:22:23.228Z,14.43
2024-01-20T23:27:27.094Z,11.48
2024-01-20T23:32:32.534Z,12.85
2024-01-20T23:37:36.501Z,14.70
2024-01-20T23:42:40.244Z,17.52
2024-01-20T23:47:45.752Z,13.65
2024-01-20T23:52:49.356Z,15.07
2024-01-20T23:57:53.283Z,14.73
